Time;durP1;ratioP1;P1;durP2;ratioP2;P2;SDS_P1;SDS_P2;PMS_P1;PMS_P2;Temp;Humidity;BMP_temperature;BMP_pressure;BME280_temperature;BME280_humidity;BME280_pressure;Samples;Min_cycle;Max_cycle;Signal;HPM_P1;HPM_P2
2023/10/28 00:00:45;;;;;;;;;16.50;16.00;;;;;-143.90;100.00;73973.31;4990231;27;101671;-76
2023/10/28 00:03:12;;;;;;;;;18.25;17.00;;;;;-143.90;100.00;73977.44;4989636;28;103640;-77
2023/10/28 00:05:39;;;;;;;;;23.50;18.00;;;;;-143.90;100.00;73973.31;4984458;27;102594;-77
2023/10/28 00:08:07;;;;;;;;;18.75;18.75;;;;;-143.90;100.00;73979.50;4989402;27;101548;-76
2023/10/28 00:10:37;;;;;;;;;16.75;16.25;;;;;-143.90;100.00;73985.72;4990478;27;101918;-75
2023/10/28 00:13:07;;;;;;;;;16.25;16.00;;;;;-143.90;100.00;73983.66;4986018;27;104250;-75
2023/10/28 00:15:33;;;;;;;;;14.50;14.00;;;;;-143.90;100.00;73981.56;4971323;28;108026;-76
2023/10/28 00:18:00;;;;;;;;;16.50;15.00;;;;;-143.90;100.00;73985.72;4990966;27;102536;-76
2023/10/28 00:20:29;;;;;;;;;19.00;16.25;;;;;-143.90;100.00;73989.84;4974382;27;101826;-76
2023/10/28 00:22:57;;;;;;;;;16.50;14.75;;;;;-143.90;100.00;73996.03;4990472;27;103430;-76
2023/10/28 00:25:29;;;;;;;;;17.75;15.50;;;;;-143.90;100.00;74000.19;4988408;27;103242;-74
2023/10/28 00:27:55;;;;;;;;;16.00;13.50;;;;;-143.90;100.00;74008.44;4990817;27;101909;-75
2023/10/28 00:30:23;;;;;;;;;16.75;14.75;;;;;-143.90;100.00;74008.44;4993782;28;102614;-76
2023/10/28 00:32:51;;;;;;;;;15.75;14.00;;;;;-143.90;100.00;74012.56;4989558;28;108600;-78
2023/10/28 00:35:18;;;;;;;;;13.25;12.25;;;;;-143.90;100.00;74018.78;4986333;28;101755;-75
2023/10/28 00:37:45;;;;;;;;;14.50;12.00;;;;;-143.90;100.00;74024.97;4988620;28;101614;-75
2023/10/28 00:40:12;;;;;;;;;17.00;15.25;;;;;-143.90;100.00;74035.31;4989046;28;101510;-76
2023/10/28 00:42:39;;;;;;;;;15.00;11.50;;;;;-143.90;100.00;74043.59;4984998;27;105171;-76
2023/10/28 00:45:09;;;;;;;;;11.75;10.50;;;;;-143.90;100.00;74043.59;4972004;28;101882;-76
2023/10/28 00:47:38;;;;;;;;;14.00;12.50;;;;;-143.90;100.00;74043.59;4986789;27;101924;-77
2023/10/28 00:50:15;;;;;;;;;11.25;8.00;;;;;-143.90;100.00;74043.59;4993270;27;102251;-76
2023/10/28 00:52:47;;;;;;;;;14.50;14.25;;;;;-143.90;100.00;74047.72;4988291;27;103927;-76
2023/10/28 00:55:15;;;;;;;;;19.00;14.75;;;;;-143.90;100.00;74055.97;4970524;28;102734;-77
2023/10/28 00:57:43;;;;;;;;;11.00;11.00;;;;;-143.90;100.00;74049.78;4987977;27;101983;-76
2023/10/28 01:00:12;;;;;;;;;13.50;10.75;;;;;-143.90;100.00;74055.97;4988891;27;101660;-76
2023/10/28 01:02:42;;;;;;;;;11.50;10.75;;;;;-143.90;100.00;74060.13;4963777;28;103194;-76
2023/10/28 01:05:11;;;;;;;;;10.75;9.75;;;;;-143.90;100.00;74060.13;4989165;27;102871;-76
2023/10/28 01:07:39;;;;;;;;;9.00;7.50;;;;;-143.90;100.00;74060.13;4975042;28;101584;-77
2023/10/28 01:10:08;;;;;;;;;8.00;8.00;;;;;-143.90;100.00;74051.84;4978054;28;102224;-76
2023/10/28 01:12:35;;;;;;;;;11.50;9.00;;;;;-143.90;100.00;74060.13;4967093;28;104150;-76
2023/10/28 01:15:02;;;;;;;;;9.00;8.00;;;;;-143.90;100.00;74066.31;4987079;28;103125;-77
2023/10/28 01:17:30;;;;;;;;;6.00;6.00;;;;;-143.90;100.00;74064.25;4991481;28;102307;-75
2023/10/28 01:19:58;;;;;;;;;10.25;9.50;;;;;-143.90;100.00;74068.38;4988869;28;103463;-72
2023/10/28 01:22:24;;;;;;;;;11.25;9.25;;;;;-143.90;100.00;74072.50;4990739;28;102424;-76
2023/10/28 01:24:51;;;;;;;;;6.00;6.00;;;;;-143.90;100.00;74068.38;4989745;27;101718;-77
2023/10/28 01:27:19;;;;;;;;;8.50;7.00;;;;;-143.90;100.00;74070.44;4991027;27;102589;-76
2023/10/28 01:29:46;;;;;;;;;7.75;7.50;;;;;-143.90;100.00;74074.59;4988866;28;102941;-76
2023/10/28 01:32:14;;;;;;;;;9.75;7.25;;;;;-143.90;100.00;74072.50;4992140;28;103838;-76
2023/10/28 01:34:48;;;;;;;;;9.50;8.00;;;;;-143.90;100.00;74074.59;4988902;27;102038;-76
2023/10/28 01:37:16;;;;;;;;;6.00;6.00;;;;;-143.90;100.00;74076.66;4988088;27;102009;-76
2023/10/28 01:39:51;;;;;;;;;5.00;5.00;;;;;-143.90;100.00;74068.38;4977297;28;101762;-76
2023/10/28 01:42:21;;;;;;;;;5.00;4.50;;;;;-143.90;100.00;74064.25;4992431;28;103340;-76
2023/10/28 01:44:49;;;;;;;;;9.00;7.00;;;;;-143.90;100.00;74078.72;4994501;27;101635;-76
2023/10/28 01:47:16;;;;;;;;;8.50;7.25;;;;;-143.90;100.00;74078.72;4991405;27;101904;-75
2023/10/28 01:49:43;;;;;;;;;5.50;4.75;;;;;-143.90;100.00;74091.13;4975313;28;101894;-75
2023/10/28 01:52:12;;;;;;;;;8.00;6.50;;;;;-143.90;100.00;74084.91;4990206;28;103358;-74
2023/10/28 01:54:39;;;;;;;;;9.00;8.00;;;;;-143.90;100.00;74076.66;4998063;27;101845;-76
2023/10/28 01:57:07;;;;;;;;;6.50;6.50;;;;;-143.90;100.00;74082.84;4980059;28;101875;-76
2023/10/28 01:59:34;;;;;;;;;9.50;8.00;;;;;-143.90;100.00;74086.97;4975059;28;101716;-75
2023/10/28 02:02:02;;;;;;;;;8.00;8.00;;;;;-143.90;100.00;74091.13;4988236;27;103661;-74
2023/10/28 02:04:31;;;;;;;;;8.50;8.25;;;;;-143.90;100.00;74097.31;5001753;27;101987;-76
2023/10/28 02:06:58;;;;;;;;;11.00;9.00;;;;;-143.90;100.00;74095.25;4995960;27;101807;-73
2023/10/28 02:09:29;;;;;;;;;8.00;7.25;;;;;-143.90;100.00;74101.44;5000422;28;101766;-75
2023/10/28 02:11:55;;;;;;;;;10.00;9.00;;;;;-143.90;100.00;74103.53;4991634;28;107791;-76
2023/10/28 02:14:24;;;;;;;;;8.75;8.00;;;;;-143.90;100.00;74113.84;4973794;28;102333;-74
2023/10/28 02:16:51;;;;;;;;;9.00;7.25;;;;;-143.90;100.00;74105.59;4991079;28;101868;-75
2023/10/28 02:19:20;;;;;;;;;9.50;8.00;;;;;-143.90;100.00;74105.59;4978185;28;103229;-76
2023/10/28 02:21:50;;;;;;;;;8.00;8.00;;;;;-143.90;100.00;74118.00;4988452;27;103383;-76
2023/10/28 02:24:37;;;;;;;;;8.00;7.00;;;;;-143.90;100.00;74122.13;4986415;28;101763;-77
2023/10/28 02:27:03;;;;;;;;;5.00;5.00;;;;;-143.90;100.00;74126.25;4998556;28;102407;-76
2023/10/28 02:29:30;;;;;;;;;10.00;9.25;;;;;-143.90;100.00;74115.91;4994568;28;101640;-76
2023/10/28 02:31:56;;;;;;;;;7.00;5.00;;;;;-143.90;100.00;74122.13;4993319;27;103442;-76
2023/10/28 02:34:23;;;;;;;;;7.50;5.00;;;;;-143.90;100.00;74126.25;4995033;27;101561;-76
2023/10/28 02:36:50;;;;;;;;;7.75;6.25;;;;;-143.90;100.00;74130.38;4989788;27;101515;-75
2023/10/28 02:39:17;;;;;;;;;5.75;5.00;;;;;-143.90;100.00;74118.00;4971326;27;101730;-76
2023/10/28 02:41:44;;;;;;;;;4.00;4.00;;;;;-143.90;100.00;74118.00;4989819;27;103405;-75
2023/10/28 02:44:11;;;;;;;;;5.00;4.00;;;;;-143.90;100.00;74115.91;4969371;28;103038;-74
2023/10/28 02:46:38;;;;;;;;;4.25;4.25;;;;;-143.90;100.00;74132.44;4992306;27;101792;-76
2023/10/28 02:49:05;;;;;;;;;5.00;5.00;;;;;-143.90;100.00;74126.25;4987256;28;102709;-74
2023/10/28 02:51:32;;;;;;;;;4.00;4.00;;;;;-143.90;100.00;74128.31;4993151;28;105830;-77
2023/10/28 02:53:59;;;;;;;;;4.25;4.00;;;;;-143.90;100.00;74130.38;4993935;27;101789;-75
2023/10/28 02:56:26;;;;;;;;;4.00;4.00;;;;;-143.90;100.00;74126.25;4994995;27;102117;-75
2023/10/28 02:58:52;;;;;;;;;7.75;7.25;;;;;-143.90;100.00;74120.06;4995174;27;101681;-75
2023/10/28 03:01:19;;;;;;;;;3.50;3.25;;;;;-143.90;100.00;74122.13;4989558;28;103554;-75
2023/10/28 03:03:46;;;;;;;;;4.00;4.00;;;;;-143.90;100.00;74115.91;4993269;27;101923;-75
2023/10/28 03:06:13;;;;;;;;;5.50;5.50;;;;;-143.90;100.00;74136.59;4990123;28;101602;-77
2023/10/28 03:08:40;;;;;;;;;4.75;4.50;;;;;-143.90;100.00;74138.66;4991784;27;102492;-76
2023/10/28 03:11:06;;;;;;;;;5.75;5.75;;;;;-143.90;100.00;74126.25;4986016;27;103484;-77
2023/10/28 03:13:33;;;;;;;;;6.25;5.25;;;;;-143.90;100.00;74130.38;4975187;28;101827;-76
2023/10/28 03:16:00;;;;;;;;;5.00;5.00;;;;;-143.90;100.00;74132.44;4993368;27;101705;-75
2023/10/28 03:18:27;;;;;;;;;4.50;4.50;;;;;-143.90;100.00;74130.38;4996207;27;105097;-75
2023/10/28 03:20:56;;;;;;;;;4.50;3.75;;;;;-143.90;100.00;74134.53;4989999;28;107959;-76
2023/10/28 03:23:23;;;;;;;;;4.00;4.00;;;;;-143.90;100.00;74146.91;4990351;27;102127;-75
2023/10/28 03:25:50;;;;;;;;;4.75;4.00;;;;;-143.90;100.00;74146.91;4992955;27;101825;-74
2023/10/28 03:28:17;;;;;;;;;5.50;5.00;;;;;-143.90;100.00;74151.06;4996211;27;101965;-75
2023/10/28 03:30:44;;;;;;;;;4.00;4.00;;;;;-143.90;100.00;74159.31;4989321;27;103569;-76
2023/10/28 03:33:10;;;;;;;;;8.25;7.00;;;;;-143.90;100.00;74171.72;4991208;27;101603;-76
2023/10/28 03:35:37;;;;;;;;;5.25;4.00;;;;;-143.90;100.00;74171.72;4971792;27;102670;-76
2023/10/28 03:38:04;;;;;;;;;3.00;3.00;;;;;-143.90;100.00;74171.72;4988472;28;101993;-75
2023/10/28 03:40:30;;;;;;;;;1.00;1.00;;;;;-143.90;100.00;74175.84;4984936;28;103655;-76
2023/10/28 03:42:57;;;;;;;;;4.00;4.00;;;;;-143.90;100.00;74173.78;4997013;28;106967;-74
2023/10/28 03:45:24;;;;;;;;;3.00;2.00;;;;;-143.90;100.00;74169.66;4996425;27;102354;-76
2023/10/28 03:47:51;;;;;;;;;3.00;2.25;;;;;-143.90;100.00;74173.78;4992926;28;102127;-76
2023/10/28 03:50:17;;;;;;;;;4.00;4.00;;;;;-143.90;100.00;74177.94;4996458;27;103461;-76
2023/10/28 03:52:44;;;;;;;;;2.50;2.50;;;;;-143.90;100.00;74171.72;4995266;27;101813;-75
2023/10/28 03:55:11;;;;;;;;;4.00;4.00;;;;;-143.90;100.00;74165.53;4991204;27;101727;-76
2023/10/28 03:57:37;;;;;;;;;2.00;2.00;;;;;-143.90;100.00;74159.31;4995125;28;101635;-76
2023/10/28 04:00:08;;;;;;;;;3.00;2.00;;;;;-143.90;100.00;74157.25;4989672;27;103461;-76
2023/10/28 04:02:35;;;;;;;;;5.75;5.50;;;;;-143.90;100.00;74163.47;4994020;27;101573;-76
2023/10/28 04:05:03;;;;;;;;;4.50;4.50;;;;;-143.90;100.00;74161.38;4996967;27;101763;-76
2023/10/28 04:07:30;;;;;;;;;8.00;5.00;;;;;-143.90;100.00;74163.47;4996794;28;102050;-75
2023/10/28 04:09:57;;;;;;;;;4.00;3.50;;;;;-143.90;100.00;74169.66;4996292;28;103848;-76
2023/10/28 04:12:23;;;;;;;;;5.00;4.00;;;;;-143.90;100.00;74175.84;4989376;27;101476;-76
2023/10/28 04:14:50;;;;;;;;;3.00;3.00;;;;;-143.90;100.00;74163.47;4998049;28;101690;-76
2023/10/28 04:17:17;;;;;;;;;2.75;2.75;;;;;-143.90;100.00;74169.66;5000903;27;101926;-76
2023/10/28 04:19:43;;;;;;;;;3.50;3.00;;;;;-143.90;100.00;74163.47;4993554;27;104947;-76
2023/10/28 04:22:11;;;;;;;;;2.25;1.50;;;;;-143.90;100.00;74169.66;4986664;28;102088;-76
2023/10/28 04:24:37;;;;;;;;;3.00;3.00;;;;;-143.90;100.00;74167.59;4994460;27;102175;-75
2023/10/28 04:27:04;;;;;;;;;3.00;3.00;;;;;-143.90;100.00;74167.59;5001219;27;102192;-76
2023/10/28 04:29:31;;;;;;;;;4.00;4.00;;;;;-143.90;100.00;74177.94;5000834;28;103429;-76
2023/10/28 04:31:57;;;;;;;;;7.00;4.00;;;;;-143.90;100.00;74177.94;4999051;27;101790;-74
2023/10/28 04:34:24;;;;;;;;;5.00;4.00;;;;;-143.90;100.00;74175.84;4998595;27;101735;-77
2023/10/28 04:36:51;;;;;;;;;4.25;4.00;;;;;-143.90;100.00;74180.00;4995505;28;101937;-75
2023/10/28 04:39:17;;;;;;;;;3.75;3.75;;;;;-143.90;100.00;74182.06;4999608;27;104504;-76
2023/10/28 04:41:44;;;;;;;;;3.50;3.00;;;;;-143.90;100.00;74180.00;5000242;27;101987;-76
2023/10/28 04:44:13;;;;;;;;;3.00;3.00;;;;;-143.90;100.00;74182.06;4989463;28;101817;-75
2023/10/28 04:46:40;;;;;;;;;5.25;4.00;;;;;-143.90;100.00;74192.41;4997126;28;101839;-76
2023/10/28 04:49:10;;;;;;;;;3.25;3.00;;;;;-143.90;100.00;74196.53;4988945;28;103294;-75
2023/10/28 04:51:37;;;;;;;;;4.50;3.50;;;;;-143.90;100.00;74196.53;4995695;27;101502;-75
2023/10/28 04:54:04;;;;;;;;;3.00;3.00;;;;;-143.90;100.00;74190.31;4995885;28;103091;-76
2023/10/28 04:56:31;;;;;;;;;5.00;4.00;;;;;-143.90;100.00;74196.53;4991730;27;102086;-74
2023/10/28 04:58:57;;;;;;;;;5.25;4.00;;;;;-143.90;100.00;74200.66;4997649;27;103556;-75
2023/10/28 05:01:24;;;;;;;;;3.50;3.00;;;;;-143.90;100.00;74213.06;4996595;27;102118;-75
2023/10/28 05:03:51;;;;;;;;;3.25;3.25;;;;;-143.90;100.00;74227.53;4981650;28;102669;-76
2023/10/28 05:06:17;;;;;;;;;4.00;3.25;;;;;-143.90;100.00;74233.72;4993077;27;101969;-75
2023/10/28 05:08:44;;;;;;;;;3.50;3.50;;;;;-143.90;100.00;74246.13;4995953;28;103882;-76
2023/10/28 05:11:15;;;;;;;;;3.25;3.25;;;;;-143.90;100.00;74256.47;4988860;27;102043;-75
2023/10/28 05:13:42;;;;;;;;;4.25;2.75;;;;;-143.90;100.00;74254.41;4976104;27;101800;-76
2023/10/28 05:16:13;;;;;;;;;3.25;3.25;;;;;-143.90;100.00;74250.25;4996682;27;101732;-76
2023/10/28 05:18:39;;;;;;;;;4.50;3.00;;;;;-143.90;100.00;74252.34;4988700;28;103400;-76
2023/10/28 05:21:06;;;;;;;;;7.00;5.00;;;;;-143.90;100.00;74266.81;4974762;28;101708;-75
2023/10/28 05:23:33;;;;;;;;;4.00;3.00;;;;;-143.90;100.00;74270.94;4988728;28;101817;-76
2023/10/28 05:26:00;;;;;;;;;5.00;4.00;;;;;-143.90;100.00;74281.28;4999000;27;101848;-76
2023/10/28 05:28:26;;;;;;;;;3.00;2.00;;;;;-143.90;100.00;74287.47;5002413;28;102212;-75
2023/10/28 05:30:53;;;;;;;;;5.00;4.00;;;;;-143.90;100.00;74293.66;4998874;27;101744;-76
2023/10/28 05:33:20;;;;;;;;;3.50;3.00;;;;;-143.90;100.00;74295.75;4996040;28;102904;-76
2023/10/28 05:35:48;;;;;;;;;4.00;3.00;;;;;-143.90;100.00;74297.81;4994888;27;101683;-76
2023/10/28 05:38:15;;;;;;;;;3.00;3.00;;;;;-143.90;100.00;74297.81;4995897;28;104213;-77
2023/10/28 05:40:41;;;;;;;;;7.00;5.00;;;;;-143.90;100.00;74301.94;4992024;27;102014;-74
2023/10/28 05:43:08;;;;;;;;;4.00;3.00;;;;;-143.90;100.00;74310.22;4992054;27;101914;-74
2023/10/28 05:45:35;;;;;;;;;4.75;4.25;;;;;-143.90;100.00;74314.34;4992099;28;101874;-75
2023/10/28 05:48:01;;;;;;;;;3.75;3.25;;;;;-143.90;100.00;74316.41;4991348;28;103335;-74
2023/10/28 05:50:28;;;;;;;;;4.00;4.00;;;;;-143.90;100.00;74320.53;4996462;27;103729;-74
2023/10/28 05:52:54;;;;;;;;;3.25;3.25;;;;;-143.90;100.00;74320.53;4995927;28;102119;-76
2023/10/28 05:55:22;;;;;;;;;3.50;3.00;;;;;-143.90;100.00;74312.28;4994451;28;101887;-76
2023/10/28 05:57:48;;;;;;;;;5.50;5.00;;;;;-143.90;100.00;74330.88;4990213;28;103419;-75
2023/10/28 06:00:15;;;;;;;;;7.00;5.00;;;;;-143.90;100.00;74328.81;4993253;28;101747;-76
2023/10/28 06:02:42;;;;;;;;;8.25;5.00;;;;;-143.90;100.00;74332.94;4989430;28;101763;-75
2023/10/28 06:05:09;;;;;;;;;3.00;3.00;;;;;-143.90;100.00;74326.75;4978579;28;102704;-76
2023/10/28 06:07:35;;;;;;;;;4.25;3.00;;;;;-143.90;100.00;74332.94;4989955;28;103664;-76
2023/10/28 06:10:04;;;;;;;;;5.00;4.00;;;;;-143.90;100.00;74339.16;4993458;28;101617;-76
2023/10/28 06:12:31;;;;;;;;;4.75;3.00;;;;;-143.90;100.00;74337.06;4998631;27;102429;-76
2023/10/28 06:14:57;;;;;;;;;3.25;3.25;;;;;-143.90;100.00;74337.06;5000842;28;101711;-76
2023/10/28 06:17:24;;;;;;;;;3.75;3.00;;;;;-143.90;100.00;74343.28;4989902;27;108004;-76
2023/10/28 06:19:51;;;;;;;;;7.75;7.00;;;;;-143.90;100.00;74349.47;4996569;27;102658;-77
2023/10/28 06:22:18;;;;;;;;;4.50;3.50;;;;;-143.90;100.00;74349.47;4973264;28;101753;-76
2023/10/28 06:24:45;;;;;;;;;3.00;3.00;;;;;-143.90;100.00;74343.28;4970690;28;102391;-76
2023/10/28 06:27:11;;;;;;;;;2.25;2.00;;;;;-143.90;100.00;74341.22;5000297;27;103513;-75
2023/10/28 06:29:38;;;;;;;;;3.75;2.00;;;;;-143.90;100.00;74341.22;4976397;28;103739;-77
2023/10/28 06:32:06;;;;;;;;;3.00;2.00;;;;;-143.90;100.00;74341.22;4975930;28;102035;-76
2023/10/28 06:34:33;;;;;;;;;3.00;3.00;;;;;-143.90;100.00;74347.41;4990033;27;102025;-75
2023/10/28 06:37:00;;;;;;;;;2.00;2.00;;;;;-143.90;100.00;74351.53;4993485;27;103804;-75
2023/10/28 06:39:27;;;;;;;;;3.00;2.00;;;;;-143.90;100.00;74349.47;4995895;27;101530;-75
2023/10/28 06:41:54;;;;;;;;;4.00;4.00;;;;;-143.90;100.00;74357.75;4995135;27;101986;-76
2023/10/28 06:44:22;;;;;;;;;4.75;3.75;;;;;-143.90;100.00;74357.75;4995375;27;101882;-76
2023/10/28 06:46:49;;;;;;;;;5.00;3.00;;;;;-143.90;100.00;74353.63;4987269;28;104046;-75
2023/10/28 06:49:16;;;;;;;;;5.75;4.25;;;;;-143.90;100.00;74353.63;4992976;27;102420;-75
2023/10/28 06:51:43;;;;;;;;;4.00;4.00;;;;;-143.90;100.00;74353.63;4979268;28;101514;-76
2023/10/28 06:54:10;;;;;;;;;4.25;3.50;;;;;-143.90;100.00;74347.41;4991314;28;101823;-76
2023/10/28 06:56:37;;;;;;;;;4.25;4.00;;;;;-143.90;100.00;74345.34;4989080;27;103410;-74
2023/10/28 06:59:03;;;;;;;;;3.00;3.00;;;;;-143.90;100.00;74341.22;4976116;27;101765;-76
2023/10/28 07:01:32;;;;;;;;;3.00;3.00;;;;;-143.90;100.00;74341.22;4998316;28;101845;-74
2023/10/28 07:03:59;;;;;;;;;4.00;3.00;;;;;-143.90;100.00;74337.06;4993147;27;101898;-74
2023/10/28 07:06:25;;;;;;;;;4.00;4.00;;;;;-143.90;100.00;74341.22;4976921;28;103317;-76
2023/10/28 07:08:52;;;;;;;;;3.25;3.00;;;;;-143.90;100.00;74337.06;4989247;27;101931;-75
2023/10/28 07:11:19;;;;;;;;;3.25;3.00;;;;;-143.90;100.00;74324.69;4988206;28;101879;-75
2023/10/28 07:13:46;;;;;;;;;3.50;3.50;;;;;-143.90;100.00;74324.69;4997433;28;101983;-75
2023/10/28 07:16:14;;;;;;;;;3.00;1.75;;;;;-143.90;100.00;74312.28;4992858;28;102275;-76
2023/10/28 07:18:42;;;;;;;;;5.00;4.00;;;;;-143.90;100.00;74312.28;4994913;27;102252;-75
2023/10/28 07:21:08;;;;;;;;;4.50;4.00;;;;;-143.90;100.00;74304.00;4989854;28;101557;-76
2023/10/28 07:23:35;;;;;;;;;5.00;4.00;;;;;-143.90;100.00;74297.81;4994715;27;101662;-76
2023/10/28 07:26:02;;;;;;;;;3.50;3.00;;;;;-143.90;100.00;74287.47;4994444;27;103433;-76
2023/10/28 07:28:33;;;;;;;;;5.00;4.00;;;;;-143.90;100.00;74283.34;4989329;28;102085;-75
2023/10/28 07:31:01;;;;;;;;;4.25;4.00;;;;;-143.90;100.00;74270.94;4992548;27;101792;-76
2023/10/28 07:33:28;;;;;;;;;4.00;3.00;;;;;-143.90;100.00;74266.81;4993930;27;101959;-76
2023/10/28 07:35:55;;;;;;;;;0.00;0.00;;;;;-143.90;100.00;74256.47;4987678;28;107737;-77
2023/10/28 07:38:21;;;;;;;;;2.50;2.50;;;;;-143.90;100.00;74242.00;4994129;27;101789;-77
2023/10/28 07:40:48;;;;;;;;;2.50;2.25;;;;;-143.90;100.00;74235.78;4992720;28;101920;-77
2023/10/28 07:43:18;;;;;;;;;3.00;2.00;;;;;-143.90;100.00;74229.59;4994713;28;101861;-77
2023/10/28 07:45:46;;;;;;;;;4.00;3.00;;;;;-143.90;100.00;74221.31;4975372;28;103235;-76
2023/10/28 07:48:13;;;;;;;;;2.75;2.00;;;;;-143.90;100.00;74208.94;4971285;28;102062;-78
2023/10/28 07:50:42;;;;;;;;;3.75;3.00;;;;;-143.90;100.00;74204.78;4994005;27;101697;-77
2023/10/28 07:53:09;;;;;;;;;4.00;2.75;;;;;-143.90;100.00;74200.66;4991235;27;101564;-77
2023/10/28 07:55:39;;;;;;;;;3.00;2.25;;;;;-143.90;100.00;74188.25;4991763;28;103530;-77
2023/10/28 07:58:06;;;;;;;;;3.75;3.00;;;;;-143.90;100.00;74196.53;4991490;27;101686;-76
2023/10/28 08:00:36;;;;;;;;;0.00;0.00;;;;;-143.90;100.00;74175.84;4994456;28;102032;-77
2023/10/28 08:03:03;;;;;;;;;2.00;2.00;;;;;-143.90;100.00;74177.94;4997178;27;102145;-79
2023/10/28 08:05:30;;;;;;;;;4.00;4.00;;;;;-143.90;100.00;74184.13;4996192;28;103424;-78
2023/10/28 08:07:57;;;;;;;;;4.75;3.00;;;;;-143.90;100.00;74196.53;4996409;28;101774;-79
2023/10/28 08:10:24;;;;;;;;;3.75;3.00;;;;;-143.90;100.00;74192.41;4992499;28;101678;-80
2023/10/28 08:12:54;;;;;;;;;2.25;2.00;;;;;-143.90;100.00;74217.19;4981232;27;102143;-78
2023/10/28 08:15:21;;;;;;;;;0.00;0.00;;;;;-143.90;100.00;74200.66;4999617;27;103631;-79
2023/10/28 08:17:48;;;;;;;;;3.75;3.25;;;;;-143.90;100.00;74188.25;4990467;27;101917;-78
2023/10/28 08:20:15;;;;;;;;;4.50;3.00;;;;;-143.90;100.00;74180.00;4993890;27;101615;-80
2023/10/28 08:22:43;;;;;;;;;3.50;3.00;;;;;-143.90;100.00;74173.78;4990228;28;103225;-78
2023/10/28 08:25:17;;;;;;;;;5.00;4.25;;;;;-143.90;100.00;74171.72;4999522;27;103227;-78
2023/10/28 08:27:47;;;;;;;;;7.25;4.00;;;;;-143.90;100.00;74159.31;4994851;28;101969;-80
2023/10/28 08:30:16;;;;;;;;;3.50;3.50;;;;;-143.90;100.00;74151.06;4995725;27;102803;-81
2023/10/28 08:32:44;;;;;;;;;3.25;3.25;;;;;-143.90;100.00;74138.66;4989796;28;101697;-79
2023/10/28 08:35:11;;;;;;;;;3.25;3.00;;;;;-143.90;99.96;74138.66;4996445;27;103218;-80
2023/10/28 08:37:38;;;;;;;;;2.50;2.50;;;;;-143.90;100.00;74126.25;5001626;27;101740;-79
2023/10/28 08:40:08;;;;;;;;;2.00;1.00;;;;;-143.90;98.63;74115.91;4995821;27;101754;-80
2023/10/28 08:42:35;;;;;;;;;5.00;4.00;;;;;-143.90;98.33;74113.84;4995900;27;102167;-80
2023/10/28 08:45:03;;;;;;;;;3.25;3.00;;;;;-143.90;98.22;74103.53;4972531;28;103524;-79
2023/10/28 08:47:36;;;;;;;;;2.75;2.00;;;;;-143.90;96.90;74089.06;4991044;27;101641;-80
2023/10/28 08:50:06;;;;;;;;;1.50;1.50;;;;;-143.90;94.54;74080.78;4974034;28;101720;-79
2023/10/28 08:52:37;;;;;;;;;3.00;2.50;;;;;-143.90;94.40;74060.13;4989761;28;101958;-79
2023/10/28 08:55:05;;;;;;;;;2.75;2.00;;;;;-143.90;94.53;74035.31;4991763;27;103487;-79
2023/10/28 08:57:34;;;;;;;;;1.25;1.25;;;;;-143.90;93.65;74010.50;4977975;28;101878;-79
2023/10/28 09:00:06;;;;;;;;;1.50;1.50;;;;;-143.90;90.60;74002.25;4994707;28;101468;-80
2023/10/28 09:02:33;;;;;;;;;2.00;2.00;;;;;-143.90;89.58;73979.50;4994622;28;101670;-80
2023/10/28 09:05:00;;;;;;;;;2.00;2.00;;;;;-143.90;89.34;73962.97;4975194;28;103702;-79
2023/10/28 09:07:27;;;;;;;;;1.50;1.00;;;;;-143.90;90.49;73944.38;4995938;28;101537;-81
2023/10/28 09:10:03;;;;;;;;;2.50;2.50;;;;;-143.90;88.52;73936.09;4987828;27;103118;-78
2023/10/28 09:12:33;;;;;;;;;1.75;1.75;;;;;-143.90;87.17;73948.50;4977385;28;102316;-78
2023/10/28 09:15:00;;;;;;;;;2.00;2.00;;;;;-143.90;84.36;73952.63;4996409;27;103433;-81
2023/10/28 09:17:26;;;;;;;;;2.00;1.00;;;;;-143.90;85.60;73952.63;4978411;28;102746;-80
2023/10/28 09:19:53;;;;;;;;;2.25;2.00;;;;;-143.90;84.81;73948.50;4968112;27;101953;-80
2023/10/28 09:22:20;;;;;;;;;1.00;1.00;;;;;-143.90;85.41;73938.19;4991459;27;102956;-84
2023/10/28 09:24:47;;;;;;;;;1.75;1.75;;;;;-143.90;85.31;73938.19;5001434;27;103674;-84
2023/10/28 09:27:17;;;;;;;;;1.25;1.00;;;;;-143.90;83.88;73936.09;5001671;28;101429;-82
2023/10/28 09:29:44;;;;;;;;;1.50;1.00;;;;;-143.90;86.43;73936.09;4994294;28;101858;-82
2023/10/28 09:32:11;;;;;;;;;2.75;1.00;;;;;-143.90;83.76;73942.31;4992082;28;101861;-83
2023/10/28 09:34:39;;;;;;;;;2.00;1.25;;;;;-143.90;85.14;73938.19;4972060;28;103381;-85
2023/10/28 09:37:06;;;;;;;;;1.00;1.00;;;;;-143.90;86.30;73927.84;5002589;28;101863;-80
2023/10/28 09:39:35;;;;;;;;;1.00;1.00;;;;;-143.90;84.60;73936.09;4994687;27;101581;-81
2023/10/28 09:42:03;;;;;;;;;1.50;1.00;;;;;-143.90;83.31;73950.56;4994634;27;103043;-79
2023/10/28 09:44:30;;;;;;;;;2.00;1.00;;;;;-143.90;84.66;73956.78;4992462;28;103424;-77
2023/10/28 09:47:00;;;;;;;;;2.00;2.00;;;;;-143.90;85.55;73979.50;4993988;28;101398;-79
2023/10/28 09:49:29;;;;;;;;;1.00;1.00;;;;;-143.90;86.04;73989.84;4997758;27;101888;-79
2023/10/28 09:52:18;;;;;;;;;1.00;1.00;;;;;-143.90;86.91;74018.78;4979095;28;101579;-80
2023/10/28 09:54:52;;;;;;;;;2.00;1.50;;;;;-143.90;88.58;74014.66;4975991;28;107864;-79
2023/10/28 09:57:19;;;;;;;;;1.00;1.00;;;;;-143.90;88.29;74006.38;4972115;28;105120;-79
2023/10/28 09:59:50;;;;;;;;;1.50;1.50;;;;;-143.90;87.00;74014.66;4995473;27;102180;-78
2023/10/28 10:02:46;;;;;;;;;1.00;0.75;;;;;-143.90;87.46;74000.19;4994478;27;101628;-78
2023/10/28 10:05:23;;;;;;;;;2.00;1.00;;;;;-143.90;89.37;73998.13;4994007;27;107948;-79
2023/10/28 10:07:50;;;;;;;;;2.00;1.50;;;;;-143.90;88.27;73973.31;4990917;28;103078;-80
2023/10/28 10:10:16;;;;;;;;;1.75;1.75;;;;;-143.90;86.13;73977.44;4991195;27;101805;-80
2023/10/28 10:12:43;;;;;;;;;2.25;2.00;;;;;-143.90;85.51;73977.44;4991830;28;102183;-82
2023/10/28 10:15:19;;;;;;;;;1.00;1.00;;;;;-143.90;84.14;73973.31;4973477;28;103370;-78
2023/10/28 10:18:10;;;;;;;;;2.00;1.00;;;;;-143.90;85.15;73981.56;4976410;28;101848;-78
2023/10/28 10:20:43;;;;;;;;;1.50;1.00;;;;;-143.90;85.28;73973.31;4991144;27;101812;-78
2023/10/28 10:23:10;;;;;;;;;1.00;1.00;;;;;-143.90;86.35;73965.03;4993568;27;103041;-77
2023/10/28 10:25:41;;;;;;;;;1.00;1.00;;;;;-143.90;88.33;73985.72;4994278;27;103280;-76
2023/10/28 10:28:15;;;;;;;;;2.25;2.00;;;;;-143.90;86.76;73979.50;4976867;27;101799;-77
2023/10/28 10:30:42;;;;;;;;;2.75;2.75;;;;;-143.90;89.63;74014.66;4991329;27;101475;-79
2023/10/28 10:33:11;;;;;;;;;2.75;1.00;;;;;-143.90;89.17;74016.72;4994373;27;102143;-80
2023/10/28 10:35:38;;;;;;;;;2.00;2.00;;;;;-143.90;90.80;74004.31;4986036;28;102920;-78
2023/10/28 10:38:11;;;;;;;;;1.75;1.75;;;;;-143.90;88.71;74006.38;4989013;28;101846;-78
2023/10/28 10:40:47;;;;;;;;;1.00;0.75;;;;;-143.90;89.15;74006.38;4993867;28;101595;-81
2023/10/28 10:43:18;;;;;;;;;2.00;2.00;;;;;-143.90;90.41;74018.78;4994419;27;102086;-78
2023/10/28 10:45:45;;;;;;;;;1.00;1.00;;;;;-143.90;90.34;74020.84;4990989;27;103626;-75
2023/10/28 10:48:13;;;;;;;;;1.00;1.00;;;;;-143.90;90.59;74018.78;4994225;27;103061;-79
2023/10/28 10:50:40;;;;;;;;;3.25;2.00;;;;;-143.90;89.70;74031.19;4997176;27;101943;-78
2023/10/28 10:53:07;;;;;;;;;2.25;2.25;;;;;-143.90;93.67;74008.44;4994221;28;101517;-78
2023/10/28 10:55:33;;;;;;;;;2.00;2.00;;;;;-143.90;89.36;74016.72;4991429;27;104697;-76
2023/10/28 10:58:00;;;;;;;;;1.00;1.00;;;;;-143.90;89.80;74002.25;4988251;28;101752;-80
2023/10/28 11:00:27;;;;;;;;;2.00;2.00;;;;;-143.90;91.40;73989.84;4999210;27;102013;-78
2023/10/28 11:02:58;;;;;;;;;1.50;1.00;;;;;-143.90;87.20;73989.84;4978608;28;102051;-78
2023/10/28 11:05:30;;;;;;;;;1.00;0.00;;;;;-143.90;87.67;74002.25;4993514;28;108971;-78